Time;durP1;ratioP1;P1;durP2;ratioP2;P2;SDS_P1;SDS_P2;PMS_P1;PMS_P2;Temp;Humidity;BMP_temperature;BMP_pressure;BME280_temperature;BME280_humidity;BME280_pressure;Samples;Min_cycle;Max_cycle;Signal;HPM_P1;HPM_P2
2022/04/06 00:00:57;;;;;;;;;;;;;;;9.13;100.00;97217.00;5077538;28;19985;-75
2022/04/06 00:03:23;;;;;;;;;;;;;;;9.28;100.00;97213.53;5075574;28;19954;-75
2022/04/06 00:05:49;;;;;;;;;;;;;;;9.29;100.00;97217.78;5072967;28;20788;-75
2022/04/06 00:08:16;;;;;;;;;;;;;;;9.18;100.00;97211.69;5074246;28;19924;-75
2022/04/06 00:10:42;;;;;;;;;;;;;;;9.23;100.00;97222.31;5077198;28;19928;-74
2022/04/06 00:13:09;;;;;;;;;;;;;;;9.23;100.00;97225.78;5076956;28;19924;-75
2022/04/06 00:15:37;;;;;;;;;;;;;;;9.27;100.00;97222.59;5073758;28;19928;-75
2022/04/06 00:18:03;;;;;;;;;;;;;;;9.27;100.00;97219.91;5072388;28;19925;-75
2022/04/06 00:20:30;;;;;;;;;;;;;;;9.21;100.00;97219.16;5075367;28;19951;-75
2022/04/06 00:22:56;;;;;;;;;;;;;;;9.29;100.00;97217.78;5077275;28;19951;-76
2022/04/06 00:25:22;;;;;;;;;;;;;;;9.25;100.00;97216.75;5074182;28;20305;-75
2022/04/06 00:27:49;;;;;;;;;;;;;;;9.32;100.00;97207.38;5073601;28;19924;-74
2022/04/06 00:30:15;;;;;;;;;;;;;;;9.37;100.00;97211.91;5073886;28;19932;-73
2022/04/06 00:32:43;;;;;;;;;;;;;;;9.24;100.00;97207.94;5076876;28;19974;-74
2022/04/06 00:37:53;;;;;;;;;;;;;;;9.21;100.00;97208.47;5067545;28;19936;-75
2022/04/06 00:40:22;;;;;;;;;;;;;;;9.10;100.00;97218.34;5074931;28;19947;-74
2022/04/06 00:42:48;;;;;;;;;;;;;;;9.15;100.00;97217.56;5076953;28;19947;-74
2022/04/06 00:45:15;;;;;;;;;;;;;;;9.27;100.00;97212.72;5075119;28;19925;-75
2022/04/06 00:47:43;;;;;;;;;;;;;;;9.25;100.00;97214.88;5073366;28;19924;-75
2022/04/06 00:50:09;;;;;;;;;;;;;;;9.36;100.00;97216.44;5073659;28;19925;-74
2022/04/06 00:52:36;;;;;;;;;;;;;;;9.35;100.00;97206.03;5077138;28;19970;-76
2022/04/06 00:55:02;;;;;;;;;;;;;;;9.24;100.00;97202.63;5075667;28;20312;-75
2022/04/06 00:57:29;;;;;;;;;;;;;;;9.17;100.00;97215.41;5072746;28;19924;-75
2022/04/06 00:59:56;;;;;;;;;;;;;;;9.26;100.00;97205.78;5073288;28;19925;-75
2022/04/06 01:02:32;;;;;;;;;;;;;;;9.25;100.00;97206.88;5075055;28;19956;-75
2022/04/06 01:05:00;;;;;;;;;;;;;;;9.16;100.00;97195.16;5077899;28;20439;-74
2022/04/06 01:07:26;;;;;;;;;;;;;;;9.15;100.00;97191.72;5074680;28;19925;-75
2022/04/06 01:09:53;;;;;;;;;;;;;;;9.06;100.00;97201.34;5074138;28;19963;-74
2022/04/06 01:12:20;;;;;;;;;;;;;;;9.05;100.00;97204.25;5075299;28;20333;-74
2022/04/06 01:14:47;;;;;;;;;;;;;;;9.19;100.00;97191.97;5077224;28;19931;-74
2022/04/06 01:17:14;;;;;;;;;;;;;;;9.15;100.00;97185.59;5076869;28;19931;-76
2022/04/06 01:19:41;;;;;;;;;;;;;;;9.26;100.00;97192.47;5077891;28;19931;-75
2022/04/06 01:22:09;;;;;;;;;;;;;;;9.05;100.00;97183.75;5077368;28;19921;-75
2022/04/06 01:24:36;;;;;;;;;;;;;;;9.05;100.00;97186.41;5080792;28;19972;-74
2022/04/06 01:27:02;;;;;;;;;;;;;;;9.03;100.00;97179.78;5080585;28;19931;-74
2022/04/06 01:29:28;;;;;;;;;;;;;;;9.09;100.00;97178.69;5078158;28;20257;-74
2022/04/06 01:31:55;;;;;;;;;;;;;;;9.09;100.00;97182.16;5075295;28;19925;-74
2022/04/06 01:34:21;;;;;;;;;;;;;;;9.09;100.00;97186.69;5078053;28;19952;-75
2022/04/06 01:36:48;;;;;;;;;;;;;;;9.17;100.00;97181.59;5078628;28;19924;-75
2022/04/06 01:39:15;;;;;;;;;;;;;;;9.05;100.00;97185.63;5079477;28;19925;-74
2022/04/06 01:41:42;;;;;;;;;;;;;;;9.11;100.00;97188.00;5075147;28;19925;-75
2022/04/06 01:44:08;;;;;;;;;;;;;;;9.14;100.00;97176.00;5074807;28;19925;-75
2022/04/06 01:46:36;;;;;;;;;;;;;;;9.12;100.00;97172.81;5079654;28;20131;-74
2022/04/06 01:54:32;;;;;;;;;;;;;;;9.10;100.00;97169.59;5079168;28;20004;-75
2022/04/06 01:56:58;;;;;;;;;;;;;;;9.18;100.00;97169.88;5080098;28;19924;-74
2022/04/06 01:59:25;;;;;;;;;;;;;;;9.10;100.00;97161.63;5078325;28;19920;-73
2022/04/06 02:01:53;;;;;;;;;;;;;;;9.10;100.00;97164.28;5076651;28;20483;-74
2022/04/06 02:04:20;;;;;;;;;;;;;;;9.05;100.00;97165.13;5078354;28;20134;-74
2022/04/06 02:06:46;;;;;;;;;;;;;;;9.07;100.00;97167.50;5079364;28;19955;-74
2022/04/06 02:09:13;;;;;;;;;;;;;;;9.11;100.00;97168.56;5079772;28;19935;-75
2022/04/06 02:11:42;;;;;;;;;;;;;;;9.19;100.00;97165.34;5075395;28;19951;-74
2022/04/06 02:14:09;;;;;;;;;;;;;;;9.13;100.00;97174.38;5076628;28;19952;-75
2022/04/06 02:16:36;;;;;;;;;;;;;;;9.13;100.00;97167.19;5080001;28;19962;-74
2022/04/06 02:19:03;;;;;;;;;;;;;;;9.12;100.00;97162.16;5078065;28;19920;-75
2022/04/06 02:21:29;;;;;;;;;;;;;;;9.12;100.00;97157.63;5076102;28;19931;-75
2022/04/06 02:23:55;;;;;;;;;;;;;;;9.13;100.00;97163.75;5074266;28;19980;-75
2022/04/06 02:26:22;;;;;;;;;;;;;;;9.18;100.00;97156.56;5075841;28;19936;-75
2022/04/06 02:28:49;;;;;;;;;;;;;;;9.25;100.00;97164.25;5078360;28;19965;-75
2022/04/06 02:31:16;;;;;;;;;;;;;;;9.08;100.00;97148.59;5078788;28;19921;-75
2022/04/06 02:33:42;;;;;;;;;;;;;;;9.08;100.00;97150.44;5074331;28;19925;-74
2022/04/06 02:36:09;;;;;;;;;;;;;;;9.06;100.00;97153.41;5074209;28;19931;-74
2022/04/06 02:38:38;;;;;;;;;;;;;;;9.05;100.00;97145.66;5077658;28;19935;-74
2022/04/06 02:41:05;;;;;;;;;;;;;;;9.07;100.00;97135.53;5079598;28;20256;-74
2022/04/06 02:43:31;;;;;;;;;;;;;;;9.09;100.00;97141.41;5076397;28;20508;-74
2022/04/06 02:45:59;;;;;;;;;;;;;;;9.02;100.00;97136.34;5075224;28;19971;-75
2022/04/06 02:48:26;;;;;;;;;;;;;;;9.06;100.00;97142.75;5078220;28;19956;-74
2022/04/06 02:50:52;;;;;;;;;;;;;;;9.06;100.00;97137.41;5079753;28;19924;-75
2022/04/06 02:53:18;;;;;;;;;;;;;;;9.09;100.00;97141.41;5078793;28;19974;-75
2022/04/06 02:55:45;;;;;;;;;;;;;;;9.04;100.00;97142.19;5075799;28;19951;-74
2022/04/06 02:58:11;;;;;;;;;;;;;;;9.13;100.00;97143.22;5075632;28;19925;-73
2022/04/06 03:00:37;;;;;;;;;;;;;;;9.04;100.00;97138.72;5062875;28;20036;-74
2022/04/06 03:03:05;;;;;;;;;;;;;;;9.08;100.00;97135.28;5071273;28;19929;-74
2022/04/06 03:05:32;;;;;;;;;;;;;;;9.03;100.00;97129.16;5078547;28;19966;-74
2022/04/06 03:07:58;;;;;;;;;;;;;;;9.09;100.00;97134.22;5077971;28;19924;-74
2022/04/06 03:10:24;;;;;;;;;;;;;;;9.14;100.00;97138.72;5075826;28;19974;-73
2022/04/06 03:12:51;;;;;;;;;;;;;;;9.25;100.00;97134.94;5077135;28;19952;-74
2022/04/06 03:15:17;;;;;;;;;;;;;;;9.25;100.00;97132.28;5078298;28;19925;-74
2022/04/06 03:17:43;;;;;;;;;;;;;;;9.17;100.00;97135.50;5075714;28;19952;-74
2022/04/06 03:20:13;;;;;;;;;;;;;;;9.27;100.00;97126.66;5075288;28;19931;-74
2022/04/06 03:22:39;;;;;;;;;;;;;;;9.06;100.00;97118.78;5066295;28;19987;-74
2022/04/06 03:25:06;;;;;;;;;;;;;;;9.24;100.00;97122.69;5074128;28;19960;-74
2022/04/06 03:27:33;;;;;;;;;;;;;;;9.21;100.00;97117.91;5081829;28;20011;-75
2022/04/06 03:30:00;;;;;;;;;;;;;;;9.28;100.00;97113.09;5074187;28;19929;-75
2022/04/06 03:32:26;;;;;;;;;;;;;;;9.31;100.00;97119.75;5076099;28;20151;-75
2022/04/06 03:34:53;;;;;;;;;;;;;;;9.16;100.00;97120.56;5076765;28;20178;-75
2022/04/06 03:37:21;;;;;;;;;;;;;;;9.30;100.00;97120.78;5076442;28;19924;-75
2022/04/06 03:39:47;;;;;;;;;;;;;;;9.22;100.00;97124.84;5073286;28;19932;-75
2022/04/06 03:42:14;;;;;;;;;;;;;;;9.32;100.00;97121.31;5073893;28;20036;-75
2022/04/06 03:44:40;;;;;;;;;;;;;;;9.33;100.00;97118.38;5076415;28;19955;-75
2022/04/06 03:47:07;;;;;;;;;;;;;;;9.17;100.00;97111.53;5075984;28;19950;-75
2022/04/06 03:49:33;;;;;;;;;;;;;;;9.29;100.00;97117.31;5074857;28;19924;-75
2022/04/06 03:51:59;;;;;;;;;;;;;;;9.28;100.00;97105.09;5073892;28;19980;-75
2022/04/06 03:54:27;;;;;;;;;;;;;;;9.19;100.00;97115.50;5074685;28;19988;-74
2022/04/06 03:56:54;;;;;;;;;;;;;;;9.26;100.00;97111.75;5076819;28;19925;-76
2022/04/06 03:59:20;;;;;;;;;;;;;;;9.36;100.00;97109.84;5075366;28;19931;-74
2022/04/06 04:01:47;;;;;;;;;;;;;;;9.39;100.00;97106.63;5074042;28;20180;-74
2022/04/06 04:04:13;;;;;;;;;;;;;;;9.38;100.00;97107.69;5074486;28;19925;-74
2022/04/06 04:06:39;;;;;;;;;;;;;;;9.34;100.00;97101.34;5077385;28;20292;-74
2022/04/06 04:09:06;;;;;;;;;;;;;;;9.45;100.00;97113.53;5075872;28;20253;-74
2022/04/06 04:11:34;;;;;;;;;;;;;;;9.35;100.00;97104.78;5073029;28;19960;-74
2022/04/06 04:14:00;;;;;;;;;;;;;;;9.15;100.00;97108.34;5073485;28;19929;-74
2022/04/06 04:16:27;;;;;;;;;;;;;;;9.28;100.00;97112.28;5075612;28;20391;-74
2022/04/06 04:18:53;;;;;;;;;;;;;;;9.15;100.00;97111.00;5075752;28;19978;-74
2022/04/06 04:21:35;;;;;;;;;;;;;;;9.20;100.00;97110.97;5076122;28;19934;-74
2022/04/06 04:24:02;;;;;;;;;;;;;;;9.37;100.00;97099.97;5073701;28;19924;-74
2022/04/06 04:26:29;;;;;;;;;;;;;;;9.25;100.00;97108.31;5074535;28;19924;-74
2022/04/06 04:28:57;;;;;;;;;;;;;;;9.17;100.00;97112.31;5076771;28;19936;-75
2022/04/06 04:31:23;;;;;;;;;;;;;;;9.36;100.00;97101.84;5075251;28;19955;-75
2022/04/06 04:33:50;;;;;;;;;;;;;;;9.36;100.00;97106.38;5071867;28;19955;-75
2022/04/06 04:36:16;;;;;;;;;;;;;;;9.39;100.00;97105.81;5072854;28;19996;-75
2022/04/06 04:38:43;;;;;;;;;;;;;;;9.44;100.00;97103.16;5076868;28;19956;-75
2022/04/06 04:41:09;;;;;;;;;;;;;;;9.20;100.00;97103.78;5076285;28;19924;-75
2022/04/06 04:43:36;;;;;;;;;;;;;;;9.25;100.00;97107.50;5071984;28;20342;-75
2022/04/06 04:46:04;;;;;;;;;;;;;;;9.26;100.00;97115.22;5072728;28;19924;-75
2022/04/06 04:48:31;;;;;;;;;;;;;;;9.26;100.00;97112.53;5075223;28;19932;-74
2022/04/06 04:50:57;;;;;;;;;;;;;;;9.21;100.00;97116.03;5074623;28;20201;-74
2022/04/06 04:53:24;;;;;;;;;;;;;;;9.25;100.00;97105.66;5075627;28;20496;-74
2022/04/06 04:55:52;;;;;;;;;;;;;;;9.25;100.00;97105.66;5076392;28;19925;-74
2022/04/06 04:58:19;;;;;;;;;;;;;;;9.30;100.00;97099.47;5077201;28;20358;-75
2022/04/06 05:00:46;;;;;;;;;;;;;;;9.22;100.00;97092.88;5079887;28;19970;-74
2022/04/06 05:03:14;;;;;;;;;;;;;;;9.24;100.00;97098.72;5079938;28;20040;-74
2022/04/06 05:05:43;;;;;;;;;;;;;;;9.21;100.00;97101.94;5075368;28;19996;-74
2022/04/06 05:08:09;;;;;;;;;;;;;;;9.20;100.00;97101.13;5076226;28;19924;-74
2022/04/06 05:10:36;;;;;;;;;;;;;;;9.29;100.00;97098.69;5079939;28;19946;-76
2022/04/06 05:13:03;;;;;;;;;;;;;;;9.19;100.00;97109.41;5078314;28;19946;-74
2022/04/06 05:15:30;;;;;;;;;;;;;;;9.10;100.00;97100.34;5077208;28;19966;-76
2022/04/06 05:17:56;;;;;;;;;;;;;;;9.22;100.00;97103.53;5075818;28;19940;-75
2022/04/06 05:20:24;;;;;;;;;;;;;;;9.22;100.00;97093.66;5077776;28;19936;-75
2022/04/06 05:22:50;;;;;;;;;;;;;;;9.17;100.00;97093.69;5078527;28;19935;-75
2022/04/06 05:25:17;;;;;;;;;;;;;;;9.32;100.00;97092.81;5079393;28;20091;-75
2022/04/06 05:27:44;;;;;;;;;;;;;;;9.25;100.00;97092.31;5076132;28;20017;-75
2022/04/06 05:30:11;;;;;;;;;;;;;;;9.14;100.00;97096.91;5075766;28;19925;-75
2022/04/06 05:32:38;;;;;;;;;;;;;;;9.21;100.00;97091.28;5067548;28;19925;-75
2022/04/06 05:35:06;;;;;;;;;;;;;;;9.13;100.00;97105.94;5076217;28;19932;-75
2022/04/06 05:37:34;;;;;;;;;;;;;;;9.28;100.00;97093.63;5078814;28;19928;-75
2022/04/06 05:40:01;;;;;;;;;;;;;;;9.19;100.00;97096.09;5079365;28;19956;-74
2022/04/06 05:42:28;;;;;;;;;;;;;;;9.16;100.00;97099.28;5075975;28;19924;-75
2022/04/06 05:44:54;;;;;;;;;;;;;;;9.33;100.00;97096.28;5079805;28;19975;-74
2022/04/06 05:47:21;;;;;;;;;;;;;;;9.36;100.00;97101.06;5079458;28;19925;-74
2022/04/06 05:49:47;;;;;;;;;;;;;;;9.19;100.00;97098.75;5077217;28;19924;-74
2022/04/06 05:52:13;;;;;;;;;;;;;;;9.44;100.00;97105.81;5075842;28;19987;-75
2022/04/06 05:54:41;;;;;;;;;;;;;;;9.45;100.00;97094.88;5079253;28;19990;-75
2022/04/06 05:57:07;;;;;;;;;;;;;;;9.57;100.00;97099.84;5079988;28;19931;-75
2022/04/06 05:59:36;;;;;;;;;;;;;;;9.46;100.00;97099.13;5077230;28;19932;-74
2022/04/06 06:02:03;;;;;;;;;;;;;;;9.45;100.00;97110.84;5076123;28;19925;-75
2022/04/06 06:04:29;;;;;;;;;;;;;;;9.26;100.00;97107.22;5076420;28;19956;-74
2022/04/06 06:06:55;;;;;;;;;;;;;;;9.31;100.00;97112.53;5078700;28;19931;-74
2022/04/06 06:09:22;;;;;;;;;;;;;;;9.34;100.00;97109.34;5077086;28;19924;-74
2022/04/06 06:11:49;;;;;;;;;;;;;;;9.40;100.00;97112.75;5075294;28;19925;-74
2022/04/06 06:14:16;;;;;;;;;;;;;;;9.32;100.00;97111.44;5076095;28;19931;-74
2022/04/06 06:16:44;;;;;;;;;;;;;;;9.32;100.00;97108.00;5078964;28;19964;-74
2022/04/06 06:19:11;;;;;;;;;;;;;;;9.25;100.00;97112.84;5079105;28;19924;-74
2022/04/06 06:21:38;;;;;;;;;;;;;;;9.36;100.00;97111.72;5067505;28;20370;-76
2022/04/06 06:24:06;;;;;;;;;;;;;;;9.33;100.00;97110.38;5074308;28;20355;-75
2022/04/06 06:26:32;;;;;;;;;;;;;;;9.22;100.00;97103.53;5078094;28;19966;-75
2022/04/06 06:29:00;;;;;;;;;;;;;;;9.27;100.00;97113.34;5079385;28;19924;-75
2022/04/06 06:31:27;;;;;;;;;;;;;;;9.31;100.00;97114.41;5077103;28;19929;-75
2022/04/06 06:33:54;;;;;;;;;;;;;;;9.26;100.00;97109.88;5075250;28;19924;-74
2022/04/06 06:36:21;;;;;;;;;;;;;;;9.39;100.00;97103.97;5076651;28;19925;-74
2022/04/06 06:38:47;;;;;;;;;;;;;;;9.23;100.00;97094.44;5079264;28;19987;-74
2022/04/06 06:41:14;;;;;;;;;;;;;;;9.33;100.00;97099.72;5078587;28;19956;-74
2022/04/06 06:43:40;;;;;;;;;;;;;;;9.43;100.00;97099.69;5075513;28;19963;-74
2022/04/06 06:46:09;;;;;;;;;;;;;;;9.28;100.00;97094.44;5074448;28;19951;-74
2022/04/06 06:48:36;;;;;;;;;;;;;;;9.38;100.00;97102.34;5077662;28;19924;-75
2022/04/06 06:51:02;;;;;;;;;;;;;;;9.37;100.00;97100.78;5079664;28;20015;-75
2022/04/06 06:53:29;;;;;;;;;;;;;;;9.31;100.00;97096.56;5077300;28;19990;-74
2022/04/06 06:55:55;;;;;;;;;;;;;;;9.34;100.00;97093.34;5076224;28;19964;-74
2022/04/06 06:58:21;;;;;;;;;;;;;;;9.45;100.00;97092.22;5077063;28;19980;-74
2022/04/06 07:00:48;;;;;;;;;;;;;;;9.34;100.00;97087.22;5078957;28;19924;-74
2022/04/06 07:03:16;;;;;;;;;;;;;;;9.37;100.00;97086.66;5078270;28;19924;-73
2022/04/06 07:05:42;;;;;;;;;;;;;;;9.37;100.00;97081.34;5074663;28;19996;-74
2022/04/06 07:08:09;;;;;;;;;;;;;;;9.50;100.00;97084.16;5074532;28;19924;-72
2022/04/06 07:10:35;;;;;;;;;;;;;;;9.52;100.00;97086.56;5077580;28;19931;-74
2022/04/06 07:13:02;;;;;;;;;;;;;;;9.69;100.00;97082.47;5077325;28;19963;-75
2022/04/06 07:15:28;;;;;;;;;;;;;;;9.59;100.00;97076.41;5074977;28;19964;-74
2022/04/06 07:17:55;;;;;;;;;;;;;;;9.50;100.00;97078.84;5073758;28;19925;-74
2022/04/06 07:20:23;;;;;;;;;;;;;;;9.56;100.00;97072.41;5075685;28;19935;-75
2022/04/06 07:22:50;;;;;;;;;;;;;;;9.62;100.00;97075.84;5076601;28;19992;-75
2022/04/06 07:25:17;;;;;;;;;;;;;;;9.63;100.00;97078.22;5075796;28;20023;-74
2022/04/06 07:27:43;;;;;;;;;;;;;;;9.69;100.00;97074.47;5072888;28;19960;-74
2022/04/06 07:30:10;;;;;;;;;;;;;;;9.70;100.00;97073.41;5074244;28;19929;-74
2022/04/06 07:32:37;;;;;;;;;;;;;;;9.71;100.00;97074.19;5077735;28;19979;-74
2022/04/06 07:35:03;;;;;;;;;;;;;;;9.81;100.00;97063.44;5076421;28;19924;-73
2022/04/06 07:37:37;;;;;;;;;;;;;;;9.63;100.00;97066.75;5073125;28;19924;-75
2022/04/06 07:40:03;;;;;;;;;;;;;;;9.67;100.00;97067.81;5072177;28;20430;-75
2022/04/06 07:42:29;;;;;;;;;;;;;;;9.67;100.00;97067.81;5075502;28;19947;-74
2022/04/06 07:44:56;;;;;;;;;;;;;;;9.73;100.00;97062.19;5075793;28;19967;-74
2022/04/06 07:47:30;;;;;;;;;;;;;;;9.77;100.00;97071.22;5075066;28;19924;-74
2022/04/06 07:49:57;;;;;;;;;;;;;;;9.89;100.00;97072.72;5073232;28;20168;-75
2022/04/06 07:52:24;;;;;;;;;;;;;;;9.92;100.00;97069.50;5075195;28;20257;-75
2022/04/06 07:54:51;;;;;;;;;;;;;;;9.94;100.00;97072.66;5076751;28;19925;-74
2022/04/06 07:57:20;;;;;;;;;;;;;;;9.88;100.00;97071.91;5075741;28;19924;-75
2022/04/06 07:59:46;;;;;;;;;;;;;;;9.93;100.00;97074.56;5071759;28;19925;-74
2022/04/06 08:02:13;;;;;;;;;;;;;;;9.94;100.00;97067.34;5073359;28;19980;-74
2022/04/06 08:04:39;;;;;;;;;;;;;;;9.91;100.00;97067.91;5076657;28;20019;-73
2022/04/06 08:07:05;;;;;;;;;;;;;;;9.90;100.00;97069.78;5076764;28;19988;-74
2022/04/06 08:09:32;;;;;;;;;;;;;;;10.04;100.00;97072.59;5073710;28;19929;-75
2022/04/06 08:12:00;;;;;;;;;;;;;;;10.07;100.00;97072.03;5073135;28;19925;-74
2022/04/06 08:14:27;;;;;;;;;;;;;;;10.01;100.00;97067.81;5075200;28;19931;-74
2022/04/06 08:16:55;;;;;;;;;;;;;;;10.05;100.00;97075.00;5076282;28;19987;-74
2022/04/06 08:19:21;;;;;;;;;;;;;;;10.18;100.00;97074.38;5075217;28;19992;-73
2022/04/06 08:21:47;;;;;;;;;;;;;;;10.10;100.00;97074.94;5072915;28;19921;-75
2022/04/06 08:24:14;;;;;;;;;;;;;;;10.02;100.00;97080.09;5071783;28;19968;-74
2022/04/06 08:26:41;;;;;;;;;;;;;;;10.18;100.00;97073.59;5076894;28;19924;-76
2022/04/06 08:29:09;;;;;;;;;;;;;;;10.28;100.00;97078.81;5080642;28;20062;-75
2022/04/06 08:31:36;;;;;;;;;;;;;;;10.11;100.00;97065.09;5076032;28;19964;-74
2022/04/06 08:34:04;;;;;;;;;;;;;;;10.17;100.00;97061.31;5077047;28;20076;-75
2022/04/06 08:36:30;;;;;;;;;;;;;;;10.29;100.00;97061.75;5078156;28;19939;-74
2022/04/06 08:38:57;;;;;;;;;;;;;;;10.43;100.00;97070.66;5080260;28;20144;-75
2022/04/06 08:41:26;;;;;;;;;;;;;;;10.48;100.00;97056.47;5078878;28;19924;-75
2022/04/06 08:43:52;;;;;;;;;;;;;;;10.42;100.00;97060.28;5076774;28;19979;-75
2022/04/06 08:46:20;;;;;;;;;;;;;;;10.58;100.00;97062.53;5076538;28;19956;-75
2022/04/06 08:48:48;;;;;;;;;;;;;;;10.56;100.00;97053.19;5079549;28;19924;-75
2022/04/06 08:51:15;;;;;;;;;;;;;;;10.67;100.00;97062.69;5079152;28;19924;-74
2022/04/06 08:53:42;;;;;;;;;;;;;;;10.37;100.00;97060.34;5077632;28;20092;-75
2022/04/06 08:56:09;;;;;;;;;;;;;;;10.36;100.00;97067.56;5077154;28;20048;-74
2022/04/06 08:58:35;;;;;;;;;;;;;;;10.50;100.00;97054.31;5081042;28;19990;-75
2022/04/06 09:01:02;;;;;;;;;;;;;;;10.65;100.00;97062.97;5079547;28;19924;-76
2022/04/06 09:03:29;;;;;;;;;;;;;;;10.44;100.00;97055.44;5077911;28;19925;-77
2022/04/06 09:06:02;;;;;;;;;;;;;;;10.43;100.00;97054.66;5077382;28;20376;-76
2022/04/06 09:08:39;;;;;;;;;;;;;;;10.50;100.00;97060.47;5080331;28;19947;-75
2022/04/06 09:11:10;;;;;;;;;;;;;;;10.43;100.00;97064.56;5081063;28;19920;-74
2022/04/06 09:13:36;;;;;;;;;;;;;;;10.57;100.00;97060.94;5078269;28;19921;-75
2022/04/06 09:16:04;;;;;;;;;;;;;;;10.52;100.00;97060.19;5068532;28;19924;-74
2022/04/06 09:18:35;;;;;;;;;;;;;;;10.63;100.00;97054.44;5076040;28;19982;-74
2022/04/06 09:21:02;;;;;;;;;;;;;;;10.65;100.00;97051.47;5068119;28;19952;-74
2022/04/06 09:23:30;;;;;;;;;;;;;;;10.74;100.00;97055.13;5075913;28;20643;-74
2022/04/06 09:26:01;;;;;;;;;;;;;;;11.00;100.00;97045.75;5071284;28;20467;-75
2022/04/06 09:28:27;;;;;;;;;;;;;;;10.83;100.00;97042.75;5075635;28;20512;-74
2022/04/06 09:30:54;;;;;;;;;;;;;;;11.00;100.00;97047.63;5069627;28;19947;-75
2022/04/06 09:33:21;;;;;;;;;;;;;;;10.69;100.00;97039.16;5078597;28;19926;-74
2022/04/06 09:35:49;;;;;;;;;;;;;;;10.97;100.00;97037.50;5074369;28;19955;-74
2022/04/06 09:38:19;;;;;;;;;;;;;;;11.04;100.00;97029.94;5078121;28;19925;-74
2022/04/06 09:40:45;;;;;;;;;;;;;;;11.19;100.00;97024.38;5082113;28;19950;-74
2022/04/06 09:43:24;;;;;;;;;;;;;;;11.30;100.00;97031.97;5080422;28;19921;-74
2022/04/06 09:48:51;;;;;;;;;;;;;;;11.38;100.00;97023.31;5079378;28;19928;-74
2022/04/06 09:51:20;;;;;;;;;;;;;;;11.52;100.00;97022.56;5080390;28;19930;-76
2022/04/06 09:53:49;;;;;;;;;;;;;;;11.56;100.00;97021.72;5079003;28;19921;-75
2022/04/06 09:56:16;;;;;;;;;;;;;;;11.33;100.00;97018.03;5078334;28;19924;-75
2022/04/06 09:58:44;;;;;;;;;;;;;;;11.49;100.00;97012.47;5076585;28;19924;-75
2022/04/06 10:01:10;;;;;;;;;;;;;;;11.47;100.00;97011.97;5076306;28;19952;-75
2022/04/06 10:03:38;;;;;;;;;;;;;;;11.50;100.00;97006.84;5078295;28;19925;-74
2022/04/06 10:06:05;;;;;;;;;;;;;;;11.56;100.00;97007.56;5079801;28;19984;-75
2022/04/06 10:08:32;;;;;;;;;;;;;;;11.58;100.00;97006.16;5076263;28;19956;-74
2022/04/06 10:10:59;;;;;;;;;;;;;;;11.48;100.00;97005.53;5075156;28;19929;-76
2022/04/06 10:13:27;;;;;;;;;;;;;;;11.48;100.00;97000.97;5079627;28;19928;-75
2022/04/06 10:15:54;;;;;;;;;;;;;;;11.66;100.00;97002.06;5076532;28;19925;-75
2022/04/06 10:18:21;;;;;;;;;;;;;;;11.69;100.00;96996.91;5076042;28;19920;-74
2022/04/06 10:20:51;;;;;;;;;;;;;;;11.10;100.00;96996.72;5080356;28;19924;-75
2022/04/06 10:23:22;;;;;;;;;;;;;;;11.54;100.00;96989.13;5070877;28;19924;-75
2022/04/06 10:25:52;;;;;;;;;;;;;;;11.43;100.00;96981.53;5079988;28;19928;-75
2022/04/06 10:28:21;;;;;;;;;;;;;;;11.22;100.00;96975.72;5079032;28;19935;-74
2022/04/06 10:31:12;;;;;;;;;;;;;;;11.28;100.00;96979.91;5076419;28;19940;-74
2022/04/06 10:33:39;;;;;;;;;;;;;;;11.39;100.00;96976.78;5070104;28;19955;-76
2022/04/06 10:36:16;;;;;;;;;;;;;;;11.29;100.00;96974.28;5069734;28;19948;-74
2022/04/06 10:38:58;;;;;;;;;;;;;;;11.58;100.00;96966.06;5068335;28;19935;-75
2022/04/06 10:41:26;;;;;;;;;;;;;;;11.69;100.00;96956.81;5077077;28;19960;-75
2022/04/06 10:43:53;;;;;;;;;;;;;;;11.85;100.00;96963.50;5078075;28;19931;-75
2022/04/06 10:46:33;;;;;;;;;;;;;;;11.79;100.00;96966.56;5076745;28;19924;-74
2022/04/06 10:49:12;;;;;;;;;;;;;;;11.69;100.00;96954.13;5077873;28;20046;-75
2022/04/06 10:51:40;;;;;;;;;;;;;;;11.82;100.00;96958.72;5067192;28;20008;-76
2022/04/06 10:54:27;;;;;;;;;;;;;;;11.72;100.00;96963.47;5074506;28;20241;-76
2022/04/06 10:57:00;;;;;;;;;;;;;;;11.98;100.00;96955.78;5066126;28;19932;-76
2022/04/06 10:59:28;;;;;;;;;;;;;;;12.03;100.00;96950.38;5077413;28;20201;-74
2022/04/06 11:02:09;;;;;;;;;;;;;;;12.06;100.00;96942.53;5077709;28;20547;-75
2022/04/06 11:04:39;;;;;;;;;;;;;;;12.13;100.00;96936.81;5075772;28;19956;-74
2022/04/06 11:07:05;;;;;;;;;;;;;;;12.25;100.00;96935.22;5074239;28;19975;-74
2022/04/06 11:12:19;;;;;;;;;;;;;;;12.13;100.00;96931.44;5075220;28;19925;-75
2022/04/06 11:14:47;;;;;;;;;;;;;;;12.19;100.00;96923.00;5079151;28;19925;-74
2022/04/06 11:17:38;;;;;;;;;;;;;;;12.24;100.00;96922.94;5078399;28;19975;-75
2022/04/06 11:20:09;;;;;;;;;;;;;;;12.09;100.00;96927.78;5059087;28;19980;-76
2022/04/06 11:22:36;;;;;;;;;;;;;;;11.71;100.00;96927.91;5078341;28;19931;-75
2022/04/06 11:25:02;;;;;;;;;;;;;;;11.76;100.00;96919.00;5077108;28;19978;-75
2022/04/06 11:27:31;;;;;;;;;;;;;;;11.79;100.00;96913.84;5075972;28;20023;-76
2022/04/06 11:30:01;;;;;;;;;;;;;;;11.76;100.00;96914.44;5075041;28;19928;-74
2022/04/06 11:32:27;;;;;;;;;;;;;;;11.81;100.00;96903.66;5077023;28;19924;-76
2022/04/06 11:34:59;;;;;;;;;;;;;;;11.81;100.00;96906.34;5077293;28;19931;-74
2022/04/06 11:37:25;;;;;;;;;;;;;;;11.85;100.00;96901.97;5076702;28;20136;-75
2022/04/06 11:39:58;;;;;;;;;;;;;;;12.01;100.00;96901.72;5074181;28;21382;-74
2022/04/06 11:42:25;;;;;;;;;;;;;;;12.07;100.00;96900.53;5076593;28;19943;-76
2022/04/06 11:44:52;;;;;;;;;;;;;;;12.06;100.00;96894.38;5078163;28;19924;-74
2022/04/06 11:47:28;;;;;;;;;;;;;;;12.40;100.00;96883.25;5077365;28;20321;-75
2022/04/06 11:49:55;;;;;;;;;;;;;;;12.34;100.00;96881.78;5073558;28;19935;-76
2022/04/06 11:52:22;;;;;;;;;;;;;;;12.18;100.00;96885.84;5074409;28;20001;-76
2022/04/06 11:54:51;;;;;;;;;;;;;;;11.90;100.00;96879.69;5077756;28;19924;-76
2022/04/06 11:57:17;;;;;;;;;;;;;;;11.69;100.00;96879.25;5077064;28;19935;-76
2022/04/06 11:59:53;;;;;;;;;;;;;;;11.77;100.00;96867.88;5074054;28;19986;-76
2022/04/06 12:02:19;;;;;;;;;;;;;;;12.09;100.00;96877.72;5074814;28;19939;-75
2022/04/06 12:04:48;;;;;;;;;;;;;;;11.93;100.00;96871.06;5077662;28;19924;-76
2022/04/06 12:07:18;;;;;;;;;;;;;;;11.97;100.00;96852.53;5076101;28;19931;-75
2022/04/06 12:09:44;;;;;;;;;;;;;;;12.05;100.00;96855.31;5074251;28;19925;-76
2022/04/06 12:12:11;;;;;;;;;;;;;;;12.25;100.00;96851.44;5074212;28;19925;-75
2022/04/06 12:14:37;;;;;;;;;;;;;;;12.13;100.00;96841.22;5077429;28;19932;-76
2022/04/06 12:17:05;;;;;;;;;;;;;;;12.46;100.00;96841.91;5077465;28;19936;-75
2022/04/06 12:19:33;;;;;;;;;;;;;;;12.52;100.00;96824.63;5073506;28;19925;-75
2022/04/06 12:22:05;;;;;;;;;;;;;;;12.98;100.00;96822.50;5074166;28;19928;-76
2022/04/06 12:24:36;;;;;;;;;;;;;;;12.93;100.00;96827.97;5076188;28;19971;-75
2022/04/06 12:27:03;;;;;;;;;;;;;;;12.68;100.00;96828.56;5077003;28;19925;-76
2022/04/06 12:29:31;;;;;;;;;;;;;;;12.45;100.00;96816.22;5075165;28;19924;-75
2022/04/06 12:31:58;;;;;;;;;;;;;;;12.30;100.00;96808.50;5072617;28;19931;-76
2022/04/06 12:34:32;;;;;;;;;;;;;;;12.54;100.00;96817.06;5074097;28;19925;-76
2022/04/06 12:36:59;;;;;;;;;;;;;;;12.95;100.00;96801.66;5075552;28;19935;-76
2022/04/06 12:39:26;;;;;;;;;;;;;;;13.29;100.00;96787.72;5073802;28;19936;-75
2022/04/06 12:41:53;;;;;;;;;;;;;;;13.50;100.00;96793.34;5073753;28;19964;-77
2022/04/06 12:44:20;;;;;;;;;;;;;;;13.47;100.00;96781.34;5074503;28;19931;-77
2022/04/06 12:46:47;;;;;;;;;;;;;;;12.86;100.00;96774.03;5077157;28;20506;-74
2022/04/06 12:49:20;;;;;;;;;;;;;;;12.69;100.00;96776.56;5076884;28;19983;-76
2022/04/06 12:51:48;;;;;;;;;;;;;;;12.49;100.00;96781.59;5072436;28;19925;-76
2022/04/06 12:54:16;;;;;;;;;;;;;;;12.48;100.00;96771.97;5072275;28;20383;-75
2022/04/06 12:56:58;;;;;;;;;;;;;;;12.79;100.00;96768.28;5076958;28;19951;-75
2022/04/06 12:59:24;;;;;;;;;;;;;;;12.90;100.00;96763.50;5075030;28;19924;-75